This is the latest recevied weather packets stored in our database for station/object WK7G. If no packets are shown the sender has not sent any weather packets the latest 1 day(s).
| Time | Temp. | Humidity | Pressure | Rain* | Wind** | Luminosity | Snow |
|---|---|---|---|---|---|---|---|
| 1778044964 | 2.22° C | 50% | 1008.9 hPa | 0 mm | 2.24 m/s, 314° | 0 W/m² | - |
| 1778044661 | 2.22° C | 50% | 1008.5 hPa | 0 mm | 0.89 m/s, 250° | 0 W/m² | - |
| 1778044357 | 2.78° C | 49% | 1008.6 hPa | 0 mm | 2.68 m/s, 336° | 0 W/m² | - |
| 1778044056 | 2.78° C | 49% | 1008.3 hPa | 0 mm | 2.68 m/s, 224° | 0 W/m² | - |
| 1778043753 | 2.78° C | 48% | 1008.3 hPa | 0 mm | 2.68 m/s, 295° | 0 W/m² | - |
| 1778043449 | 3.33° C | 47% | 1008.5 hPa | 0 mm | 2.68 m/s, 326° | 0 W/m² | - |
| 1778043146 | 3.89° C | 45% | 1008.2 hPa | 0 mm | 3.13 m/s, 284° | 0 W/m² | - |
| 1778042843 | 3.89° C | 44% | 1008.1 hPa | 0 mm | 2.24 m/s, 317° | 0 W/m² | - |
| 1778042541 | 3.89° C | 44% | 1008 hPa | 0 mm | 1.79 m/s, 170° | 0 W/m² | - |
| 1778042238 | 3.89° C | 43% | 1008.2 hPa | 0 mm | 4.02 m/s, 343° | 0 W/m² | - |
| 1778041936 | 3.89° C | 43% | 1008.2 hPa | 0 mm | 3.13 m/s, 347° | 0 W/m² | - |
| 1778041634 | 3.89° C | 43% | 1007.7 hPa | 0 mm | 2.68 m/s, 286° | 0 W/m² | - |
| 1778041332 | 4.44° C | 43% | 1007.9 hPa | 0 mm | 2.68 m/s, 341° | 0 W/m² | - |
| 1778041030 | 4.44° C | 42% | 1007.7 hPa | 0 mm | 2.68 m/s, 336° | 0 W/m² | - |
| 1778040727 | 4.44° C | 42% | 1007.7 hPa | 0 mm | 2.68 m/s, 336° | 0 W/m² | - |
| 1778040424 | 4.44° C | 44% | 1008.1 hPa | 0 mm | 4.92 m/s, 342° | 0 W/m² | - |
| 1778040121 | 4.44° C | 46% | 1008 hPa | 0 mm | 1.34 m/s, 334° | 0 W/m² | - |
| 1778039818 | 5° C | 45% | 1008.1 hPa | 0 mm | 2.24 m/s, 339° | 0 W/m² | - |
| 1778039515 | 5° C | 44% | 1007.9 hPa | 0 mm | 2.24 m/s, 302° | 0 W/m² | - |
| 1778039212 | 5° C | 44% | 1007.5 hPa | 0 mm | 1.34 m/s, 299° | 0 W/m² | - |
| 1778038909 | 5° C | 43% | 1007.5 hPa | 0 mm | 2.24 m/s, 307° | 0 W/m² | - |
| 1778038606 | 5° C | 41% | 1007.3 hPa | 0 mm | 3.13 m/s, 7° | 0 W/m² | - |
| 1778038303 | 5° C | 43% | 1007.4 hPa | 0 mm | 3.13 m/s, 4° | 0 W/m² | - |
| 1778038000 | 4.44° C | 43% | 1007.4 hPa | 0 mm | 1.79 m/s, 7° | 0 W/m² | - |
| 1778037697 | 4.44° C | 44% | 1007.3 hPa | 0 mm | 5.36 m/s, 15° | 0 W/m² | - |
* Rain latest hour (hover to see other rain measurements)
** Current wind speed in m/s (hover to see current wind gust speed)